createdAt,value
2023-01-25T00:01:17.069Z,1.34
2023-01-25T00:03:44.927Z,1.33
2023-01-25T00:06:12.834Z,1.34
2023-01-25T00:08:40.963Z,1.34
2023-01-25T00:11:08.884Z,1.34
2023-01-25T00:13:36.840Z,1.34
2023-01-25T00:16:05.315Z,1.32
2023-01-25T00:18:33.446Z,1.31
2023-01-25T00:21:15.807Z,1.30
2023-01-25T00:23:43.977Z,1.28
2023-01-25T00:26:12.563Z,1.27
2023-01-25T00:28:40.744Z,1.24
2023-01-25T00:31:16.764Z,1.23
2023-01-25T00:33:52.336Z,1.20
2023-01-25T00:36:29.097Z,1.20
2023-01-25T00:38:57.794Z,1.18
2023-01-25T00:41:26.395Z,1.17
2023-01-25T00:43:55.100Z,1.17
2023-01-25T00:46:23.238Z,1.16
2023-01-25T00:48:54.736Z,1.15
2023-01-25T00:51:23.845Z,1.12
2023-01-25T00:53:52.494Z,1.11
2023-01-25T00:56:20.556Z,1.08
2023-01-25T00:58:48.632Z,1.05
2023-01-25T01:01:18.639Z,1.03
2023-01-25T01:03:46.595Z,1.01
2023-01-25T01:06:14.654Z,1.01
2023-01-25T01:08:42.733Z,1.00
2023-01-25T01:11:12.654Z,0.99
2023-01-25T01:13:40.848Z,0.98
2023-01-25T01:16:12.101Z,0.97
2023-01-25T01:18:45.805Z,0.94
2023-01-25T01:21:14.413Z,0.92
2023-01-25T01:23:42.432Z,0.92
2023-01-25T01:26:13.390Z,0.92
2023-01-25T01:28:42.237Z,0.90
2023-01-25T01:31:21.745Z,0.88
2023-01-25T01:34:00.912Z,0.86
2023-01-25T01:36:35.280Z,0.84
2023-01-25T01:39:03.611Z,0.83
2023-01-25T01:41:31.550Z,0.82
2023-01-25T01:43:59.923Z,0.80
2023-01-25T01:46:30.013Z,0.80
2023-01-25T01:49:16.670Z,0.79
2023-01-25T01:51:57.817Z,0.78
2023-01-25T01:54:34.930Z,0.77
2023-01-25T01:57:14.962Z,0.76
2023-01-25T01:59:51.005Z,0.75
2023-01-25T02:05:03.369Z,0.73
2023-01-25T02:07:35.323Z,0.72
2023-01-25T02:10:07.023Z,0.70
2023-01-25T02:12:37.141Z,0.69
2023-01-25T02:15:07.097Z,0.69
2023-01-25T02:17:37.625Z,0.67
2023-01-25T02:20:08.494Z,0.64
2023-01-25T02:22:44.127Z,0.64
2023-01-25T02:25:14.288Z,0.62
2023-01-25T02:27:53.224Z,0.61
2023-01-25T02:30:21.415Z,0.60
2023-01-25T02:32:49.643Z,0.59
2023-01-25T02:35:22.493Z,0.58
2023-01-25T02:37:51.846Z,0.56
2023-01-25T02:40:20.390Z,0.54
2023-01-25T02:42:48.657Z,0.53
2023-01-25T02:45:19.665Z,0.50
2023-01-25T02:47:48.695Z,0.49
2023-01-25T02:50:17.299Z,0.47
2023-01-25T02:52:45.314Z,0.47
2023-01-25T02:55:13.434Z,0.46
2023-01-25T02:57:42.006Z,0.46
2023-01-25T03:00:10.970Z,0.44
2023-01-25T03:02:38.909Z,0.43
2023-01-25T03:05:07.538Z,0.41
2023-01-25T03:07:36.128Z,0.40
2023-01-25T03:10:05.551Z,0.39
2023-01-25T03:12:34.956Z,0.39
2023-01-25T03:15:03.906Z,0.37
2023-01-25T03:17:31.959Z,0.37
2023-01-25T03:19:59.772Z,0.37
2023-01-25T03:22:27.830Z,0.37
2023-01-25T03:24:57.338Z,0.36
2023-01-25T03:27:25.419Z,0.34
2023-01-25T03:30:03.977Z,0.34
2023-01-25T03:32:33.939Z,0.32
2023-01-25T03:35:06.620Z,0.31
2023-01-25T03:37:34.745Z,0.30
2023-01-25T03:40:05.097Z,0.28
2023-01-25T03:42:33.687Z,0.27
2023-01-25T03:45:02.101Z,0.25
2023-01-25T03:47:30.097Z,0.23
2023-01-25T03:49:58.218Z,0.21
2023-01-25T03:52:42.133Z,0.19
2023-01-25T03:55:15.505Z,0.19
2023-01-25T03:57:43.734Z,0.19
2023-01-25T04:04:55.368Z,0.16
2023-01-25T04:07:23.945Z,0.15
2023-01-25T04:09:52.172Z,0.12
2023-01-25T04:12:20.253Z,0.12
2023-01-25T04:14:48.208Z,0.10
2023-01-25T04:17:22.715Z,0.07
2023-01-25T04:19:54.238Z,0.03
2023-01-25T04:22:25.811Z,-0.01
2023-01-25T04:24:55.358Z,-0.02
2023-01-25T04:27:23.567Z,-0.04
2023-01-25T04:34:37.898Z,-0.08
2023-01-25T04:37:08.444Z,-0.09
2023-01-25T04:39:43.482Z,-0.10
2023-01-25T04:42:11.571Z,-0.10
2023-01-25T04:44:39.789Z,-0.11
2023-01-25T04:47:07.823Z,-0.12
2023-01-25T04:49:35.913Z,-0.13
2023-01-25T04:52:04.286Z,-0.15
2023-01-25T04:54:32.591Z,-0.15
2023-01-25T04:57:00.736Z,-0.14
2023-01-25T04:59:29.031Z,-0.16
2023-01-25T05:01:56.976Z,-0.18
2023-01-25T05:04:25.267Z,-0.19
2023-01-25T05:06:53.471Z,-0.21
2023-01-25T05:09:21.721Z,-0.21
2023-01-25T05:11:49.887Z,-0.23
2023-01-25T05:14:26.218Z,-0.24
2023-01-25T05:16:54.506Z,-0.25
2023-01-25T05:19:23.307Z,-0.27
2023-01-25T05:22:00.337Z,-0.30
2023-01-25T05:24:34.103Z,-0.30
2023-01-25T05:27:05.024Z,-0.31
2023-01-25T05:29:53.562Z,-0.31
2023-01-25T05:32:24.623Z,-0.31
2023-01-25T05:34:52.869Z,-0.33
2023-01-25T05:37:22.072Z,-0.35
2023-01-25T05:39:56.194Z,-0.37
2023-01-25T05:42:24.949Z,-0.40
2023-01-25T05:44:54.014Z,-0.41
2023-01-25T05:47:22.010Z,-0.43
2023-01-25T05:49:49.997Z,-0.44
2023-01-25T05:52:26.967Z,-0.46
2023-01-25T05:54:55.170Z,-0.50
2023-01-25T05:57:24.882Z,-0.51
2023-01-25T05:59:52.853Z,-0.53
2023-01-25T06:02:21.300Z,-0.55
2023-01-25T06:04:49.364Z,-0.56
2023-01-25T06:07:17.357Z,-0.56
2023-01-25T06:09:45.628Z,-0.57
2023-01-25T06:12:13.685Z,-0.57
2023-01-25T06:14:42.480Z,-0.56
2023-01-25T06:17:11.319Z,-0.57
2023-01-25T06:20:12.446Z,-0.58
2023-01-25T06:22:59.308Z,-0.58
2023-01-25T06:25:27.812Z,-0.59
2023-01-25T06:27:55.900Z,-0.59
2023-01-25T06:30:24.009Z,-0.59
2023-01-25T06:32:52.092Z,-0.61
2023-01-25T06:35:20.105Z,-0.63
2023-01-25T06:37:47.983Z,-0.63
2023-01-25T06:40:16.435Z,-0.63
2023-01-25T06:42:45.384Z,-0.64
2023-01-25T06:45:13.598Z,-0.65
2023-01-25T06:47:41.828Z,-0.67
2023-01-25T06:50:10.807Z,-0.68
2023-01-25T06:52:38.861Z,-0.69
2023-01-25T06:55:10.365Z,-0.69
2023-01-25T06:57:38.447Z,-0.68
2023-01-25T07:00:06.966Z,-0.67
2023-01-25T07:02:39.017Z,-0.67
2023-01-25T07:05:07.617Z,-0.68
2023-01-25T07:07:35.613Z,-0.68
2023-01-25T07:10:04.243Z,-0.68
2023-01-25T07:12:32.399Z,-0.67
2023-01-25T07:15:00.377Z,-0.65
2023-01-25T07:17:28.483Z,-0.63
2023-01-25T07:19:56.377Z,-0.63
2023-01-25T07:22:24.261Z,-0.61
2023-01-25T07:24:53.906Z,-0.60
2023-01-25T07:27:21.815Z,-0.60
2023-01-25T07:29:49.720Z,-0.59
2023-01-25T07:32:17.564Z,-0.58
2023-01-25T07:34:46.328Z,-0.56
2023-01-25T07:37:14.400Z,-0.55
2023-01-25T07:39:48.190Z,-0.53
2023-01-25T07:42:16.433Z,-0.53
2023-01-25T07:44:52.687Z,-0.53
2023-01-25T07:47:21.244Z,-0.51
2023-01-25T07:49:49.287Z,-0.51
2023-01-25T07:52:17.245Z,-0.52
2023-01-25T07:54:48.390Z,-0.52
2023-01-25T07:57:21.549Z,-0.53
2023-01-25T07:59:52.389Z,-0.53
2023-01-25T08:02:20.766Z,-0.54
2023-01-25T08:04:48.946Z,-0.54
2023-01-25T08:07:17.011Z,-0.54
2023-01-25T08:09:44.943Z,-0.53
2023-01-25T08:12:13.049Z,-0.52
2023-01-25T08:14:41.014Z,-0.50
2023-01-25T08:17:08.904Z,-0.48
2023-01-25T08:19:37.106Z,-0.46
2023-01-25T08:22:08.091Z,-0.46
2023-01-25T08:24:36.070Z,-0.46
2023-01-25T08:27:05.126Z,-0.45
2023-01-25T08:29:32.992Z,-0.45
2023-01-25T08:32:04.475Z,-0.45
2023-01-25T08:34:32.499Z,-0.45
2023-01-25T08:37:00.867Z,-0.43
2023-01-25T08:39:28.876Z,-0.43
2023-01-25T08:41:57.001Z,-0.42
2023-01-25T08:44:26.051Z,-0.42
2023-01-25T08:46:53.953Z,-0.42
2023-01-25T08:49:21.921Z,-0.41
2023-01-25T08:51:50.657Z,-0.41
2023-01-25T08:54:19.014Z,-0.40
2023-01-25T08:56:47.508Z,-0.39
2023-01-25T08:59:15.427Z,-0.39
2023-01-25T09:01:43.411Z,-0.38
2023-01-25T09:04:12.412Z,-0.35
2023-01-25T09:06:40.555Z,-0.36
2023-01-25T09:09:08.737Z,-0.36
2023-01-25T09:11:38.177Z,-0.36
2023-01-25T09:14:06.422Z,-0.37
2023-01-25T09:16:35.319Z,-0.36
2023-01-25T09:19:05.382Z,-0.35
2023-01-25T09:21:33.998Z,-0.35
2023-01-25T09:24:09.289Z,-0.37
2023-01-25T09:26:42.912Z,-0.38
2023-01-25T09:29:12.239Z,-0.39
2023-01-25T09:31:41.083Z,-0.38
2023-01-25T09:34:41.652Z,-0.37
2023-01-25T09:37:09.563Z,-0.36
2023-01-25T09:39:37.513Z,-0.36
2023-01-25T09:42:15.580Z,-0.36
2023-01-25T09:45:00.900Z,-0.37
2023-01-25T09:47:46.951Z,-0.36
2023-01-25T09:50:27.785Z,-0.33
2023-01-25T09:53:28.531Z,-0.29
2023-01-25T09:56:01.373Z,-0.27
2023-01-25T09:58:43.835Z,-0.28
2023-01-25T10:01:39.093Z,-0.26
2023-01-25T10:04:26.957Z,-0.26
2023-01-25T10:07:02.030Z,-0.26
2023-01-25T10:09:42.762Z,-0.24
2023-01-25T10:12:22.665Z,-0.21
2023-01-25T10:14:52.100Z,-0.19
2023-01-25T10:17:40.546Z,-0.16
2023-01-25T10:20:20.074Z,-0.15
2023-01-25T10:22:53.282Z,-0.13
2023-01-25T10:26:01.865Z,-0.10
2023-01-25T10:29:02.852Z,-0.05
2023-01-25T10:31:36.688Z,-0.00
2023-01-25T10:34:24.353Z,0.04
2023-01-25T10:36:56.294Z,0.08
2023-01-25T10:39:24.375Z,0.11
2023-01-25T10:42:03.243Z,0.10
2023-01-25T10:44:31.396Z,0.08
2023-01-25T10:47:23.601Z,0.07
2023-01-25T10:49:56.891Z,0.10
2023-01-25T10:52:34.250Z,0.12
2023-01-25T10:55:14.311Z,0.14
2023-01-25T10:57:49.157Z,0.13
2023-01-25T11:04:36.979Z,0.17
2023-01-25T11:07:05.946Z,0.15
2023-01-25T11:09:39.234Z,0.18
2023-01-25T11:12:19.354Z,0.18
2023-01-25T11:14:49.966Z,0.20
2023-01-25T11:17:27.940Z,0.24
2023-01-25T11:20:18.556Z,0.29
2023-01-25T11:22:57.540Z,0.33
2023-01-25T11:25:44.424Z,0.32
2023-01-25T11:28:24.043Z,0.29
2023-01-25T11:30:53.391Z,0.27
2023-01-25T11:33:22.368Z,0.28
2023-01-25T11:36:30.984Z,0.30
2023-01-25T11:39:29.677Z,0.30
2023-01-25T11:42:31.576Z,0.26
2023-01-25T11:45:08.344Z,0.23
2023-01-25T11:47:57.456Z,0.23
2023-01-25T11:50:39.097Z,0.24
2023-01-25T11:53:26.006Z,0.22
2023-01-25T11:56:02.946Z,0.19
2023-01-25T11:59:12.080Z,0.15
2023-01-25T12:01:56.187Z,0.14
2023-01-25T12:04:49.834Z,0.15
2023-01-25T12:07:43.228Z,0.15
2023-01-25T12:10:26.942Z,0.16
2023-01-25T12:13:03.873Z,0.15
2023-01-25T12:16:09.934Z,0.14
2023-01-25T12:19:05.526Z,0.13
2023-01-25T12:21:42.419Z,0.12
2023-01-25T12:24:37.642Z,0.11
2023-01-25T12:27:25.976Z,0.10
2023-01-25T12:29:59.026Z,0.08
2023-01-25T12:32:50.648Z,0.08
2023-01-25T12:35:21.557Z,0.09
2023-01-25T12:37:53.050Z,0.11
2023-01-25T12:40:32.455Z,0.14
2023-01-25T12:43:01.688Z,0.16
2023-01-25T12:45:34.403Z,0.19
2023-01-25T12:48:30.204Z,0.20
2023-01-25T12:50:59.879Z,0.20
2023-01-25T12:53:36.187Z,0.21
2023-01-25T12:56:09.358Z,0.20
2023-01-25T12:59:30.640Z,0.18
2023-01-25T13:02:10.918Z,0.15
2023-01-25T13:05:00.183Z,0.13
2023-01-25T13:07:37.907Z,0.12
2023-01-25T13:10:12.458Z,0.10
2023-01-25T13:13:05.291Z,0.11
2023-01-25T13:15:45.016Z,0.11
2023-01-25T13:18:28.118Z,0.11
2023-01-25T13:20:58.288Z,0.10
2023-01-25T13:23:47.211Z,0.11
2023-01-25T13:26:20.969Z,0.13
2023-01-25T13:28:51.632Z,0.15
2023-01-25T13:31:51.089Z,0.14
2023-01-25T13:34:42.409Z,0.12
2023-01-25T13:37:19.187Z,0.12
2023-01-25T13:39:48.281Z,0.11
2023-01-25T13:42:28.115Z,0.11
2023-01-25T13:45:00.016Z,0.11
2023-01-25T13:47:39.638Z,0.10
2023-01-25T13:50:27.021Z,0.09
2023-01-25T13:53:00.677Z,0.11
2023-01-25T13:55:30.063Z,0.15
2023-01-25T13:58:34.359Z,0.18
2023-01-25T14:01:08.365Z,0.20
2023-01-25T14:03:50.366Z,0.22
2023-01-25T14:06:20.376Z,0.23
2023-01-25T14:08:50.476Z,0.23
2023-01-25T14:11:22.972Z,0.23
2023-01-25T14:14:17.065Z,0.23
2023-01-25T14:16:45.290Z,0.23
2023-01-25T14:19:29.818Z,0.24
2023-01-25T14:22:27.118Z,0.23
2023-01-25T14:25:11.968Z,0.22
2023-01-25T14:27:58.985Z,0.21
2023-01-25T14:30:30.623Z,0.20
2023-01-25T14:33:04.689Z,0.19
2023-01-25T14:38:27.825Z,0.12
2023-01-25T14:41:03.661Z,0.09
2023-01-25T14:43:32.547Z,0.06
2023-01-25T14:46:00.510Z,0.03
2023-01-25T14:48:42.400Z,0.02
2023-01-25T14:51:18.470Z,0.02
2023-01-25T14:53:50.875Z,0.01
2023-01-25T14:56:26.158Z,0.00
2023-01-25T14:58:59.858Z,-0.01
2023-01-25T15:01:38.192Z,-0.02
2023-01-25T15:04:12.957Z,-0.01
2023-01-25T15:06:52.493Z,-0.01
2023-01-25T15:09:43.234Z,-0.02
2023-01-25T15:12:17.268Z,-0.04
2023-01-25T15:14:49.716Z,-0.04
2023-01-25T15:17:44.469Z,-0.03
2023-01-25T15:20:40.617Z,-0.03
2023-01-25T15:23:25.834Z,-0.04
2023-01-25T15:25:59.388Z,-0.05
2023-01-25T15:28:30.384Z,-0.06
2023-01-25T15:30:59.478Z,-0.06
2023-01-25T15:33:29.946Z,-0.06
2023-01-25T15:35:58.840Z,-0.06
2023-01-25T15:38:26.670Z,-0.07
2023-01-25T15:41:00.872Z,-0.08
2023-01-25T15:43:28.822Z,-0.08
2023-01-25T15:45:57.707Z,-0.09
2023-01-25T15:48:42.611Z,-0.08
2023-01-25T15:51:12.632Z,-0.08
2023-01-25T15:53:40.745Z,-0.07
2023-01-25T15:56:15.827Z,-0.07
2023-01-25T15:58:47.671Z,-0.08
2023-01-25T16:01:15.445Z,-0.09
2023-01-25T16:03:43.453Z,-0.08
2023-01-25T16:06:34.702Z,-0.08
2023-01-25T16:09:16.454Z,-0.06
2023-01-25T16:11:45.448Z,-0.06
2023-01-25T16:14:13.516Z,-0.07
2023-01-25T16:16:47.707Z,-0.08
2023-01-25T16:19:22.882Z,-0.08
2023-01-25T16:21:51.421Z,-0.09
2023-01-25T16:24:19.423Z,-0.08
2023-01-25T16:26:53.481Z,-0.08
2023-01-25T16:29:23.115Z,-0.06
2023-01-25T16:31:52.389Z,-0.06
2023-01-25T16:34:21.103Z,-0.06
2023-01-25T16:36:53.140Z,-0.05
2023-01-25T16:39:22.243Z,-0.05
2023-01-25T16:41:51.004Z,-0.05
2023-01-25T16:44:19.369Z,-0.04
2023-01-25T16:46:51.196Z,-0.05
2023-01-25T16:49:18.874Z,-0.06
2023-01-25T16:51:48.973Z,-0.06
2023-01-25T16:54:16.814Z,-0.07
2023-01-25T16:56:44.650Z,-0.08
2023-01-25T16:59:12.591Z,-0.08
2023-01-25T17:01:42.523Z,-0.08
2023-01-25T17:04:10.825Z,-0.08
2023-01-25T17:06:43.019Z,-0.08
2023-01-25T17:09:23.049Z,-0.08
2023-01-25T17:11:52.868Z,-0.08
2023-01-25T17:14:21.612Z,-0.08
2023-01-25T17:16:51.853Z,-0.07
2023-01-25T17:19:26.240Z,-0.08
2023-01-25T17:21:54.210Z,-0.08
2023-01-25T17:24:22.273Z,-0.08
2023-01-25T17:26:51.472Z,-0.09
2023-01-25T17:29:19.430Z,-0.09
2023-01-25T17:31:48.405Z,-0.09
2023-01-25T17:34:18.224Z,-0.09
2023-01-25T17:36:46.636Z,-0.10
2023-01-25T17:39:16.647Z,-0.10
2023-01-25T17:41:46.030Z,-0.10
2023-01-25T17:44:17.746Z,-0.09
2023-01-25T17:46:45.637Z,-0.08
2023-01-25T17:49:16.970Z,-0.07
2023-01-25T17:51:45.358Z,-0.06
2023-01-25T17:54:13.398Z,-0.06
2023-01-25T17:56:41.366Z,-0.06
2023-01-25T17:59:11.338Z,-0.07
2023-01-25T18:01:39.971Z,-0.08
2023-01-25T18:04:09.241Z,-0.07
2023-01-25T18:06:37.298Z,-0.07
2023-01-25T18:09:08.624Z,-0.06
2023-01-25T18:11:38.266Z,-0.05
2023-01-25T18:14:09.435Z,-0.05
2023-01-25T18:16:39.613Z,-0.04
2023-01-25T18:19:08.763Z,-0.04
2023-01-25T18:21:37.515Z,-0.04
2023-01-25T18:24:22.759Z,-0.03
2023-01-25T18:26:52.031Z,-0.02
2023-01-25T18:29:49.163Z,-0.01
2023-01-25T18:32:17.164Z,0.00
2023-01-25T18:34:46.897Z,0.01
2023-01-25T18:37:18.678Z,0.02
2023-01-25T18:39:48.501Z,0.03
2023-01-25T18:42:16.491Z,0.04
2023-01-25T18:44:48.406Z,0.05
2023-01-25T18:47:21.357Z,0.06
2023-01-25T18:49:50.926Z,0.07
2023-01-25T18:52:21.943Z,0.08
2023-01-25T18:54:49.882Z,0.09
2023-01-25T18:57:18.233Z,0.10
2023-01-25T18:59:46.263Z,0.11
2023-01-25T19:04:34.877Z,0.10
2023-01-25T19:07:03.027Z,0.11
2023-01-25T19:09:31.340Z,0.11
2023-01-25T19:11:59.453Z,0.10
2023-01-25T19:14:27.524Z,0.10
2023-01-25T19:16:55.681Z,0.09
2023-01-25T19:19:23.872Z,0.11
2023-01-25T19:21:51.981Z,0.11
2023-01-25T19:24:20.872Z,0.13
2023-01-25T19:26:48.923Z,0.14
2023-01-25T19:29:17.100Z,0.16
2023-01-25T19:31:45.090Z,0.18
2023-01-25T19:34:13.345Z,0.18
2023-01-25T19:36:49.569Z,0.18
2023-01-25T19:39:18.263Z,0.19
2023-01-25T19:41:46.301Z,0.21
2023-01-25T19:44:15.362Z,0.22
2023-01-25T19:46:43.605Z,0.23
2023-01-25T19:49:13.304Z,0.25
2023-01-25T19:51:45.482Z,0.26
2023-01-25T19:54:16.793Z,0.27
2023-01-25T19:56:47.059Z,0.27
2023-01-25T19:59:25.007Z,0.27
2023-01-25T20:01:53.945Z,0.26
2023-01-25T20:04:23.733Z,0.23
2023-01-25T20:06:52.739Z,0.22
2023-01-25T20:09:25.087Z,0.21
2023-01-25T20:11:54.504Z,0.20
2023-01-25T20:14:23.003Z,0.21
2023-01-25T20:16:53.182Z,0.23
2023-01-25T20:19:21.431Z,0.23
2023-01-25T20:21:49.545Z,0.25
2023-01-25T20:24:17.969Z,0.26
2023-01-25T20:26:46.316Z,0.26
2023-01-25T20:29:14.324Z,0.27
2023-01-25T20:31:46.773Z,0.26
2023-01-25T20:34:17.513Z,0.24
2023-01-25T20:36:46.038Z,0.24
2023-01-25T20:39:16.111Z,0.24
2023-01-25T20:41:44.259Z,0.24
2023-01-25T20:44:15.284Z,0.22
2023-01-25T20:46:44.038Z,0.21
2023-01-25T20:49:17.967Z,0.18
2023-01-25T20:51:46.794Z,0.17
2023-01-25T20:54:15.754Z,0.15
2023-01-25T20:56:47.835Z,0.15
2023-01-25T20:59:17.813Z,0.14
2023-01-25T21:01:46.710Z,0.13
2023-01-25T21:04:14.981Z,0.13
2023-01-25T21:06:43.052Z,0.13
2023-01-25T21:09:12.278Z,0.15
2023-01-25T21:11:40.179Z,0.13
2023-01-25T21:14:08.161Z,0.12
2023-01-25T21:16:36.059Z,0.11
2023-01-25T21:19:06.150Z,0.13
2023-01-25T21:21:34.984Z,0.13
2023-01-25T21:24:05.467Z,0.12
2023-01-25T21:26:35.219Z,0.12
2023-01-25T21:29:04.393Z,0.13
2023-01-25T21:31:35.110Z,0.14
2023-01-25T21:34:04.755Z,0.15
2023-01-25T21:36:33.183Z,0.14
2023-01-25T21:39:01.440Z,0.14
2023-01-25T21:41:33.843Z,0.15
2023-01-25T21:44:21.460Z,0.17
2023-01-25T21:47:16.259Z,0.19
2023-01-25T21:49:56.006Z,0.18
2023-01-25T21:52:23.932Z,0.17
2023-01-25T21:54:51.880Z,0.17
2023-01-25T21:57:20.608Z,0.17
2023-01-25T21:59:49.002Z,0.18
2023-01-25T22:02:17.418Z,0.18
2023-01-25T22:04:54.882Z,0.19
2023-01-25T22:07:22.870Z,0.20
2023-01-25T22:09:50.923Z,0.20
2023-01-25T22:12:19.041Z,0.20
2023-01-25T22:14:47.367Z,0.19
2023-01-25T22:17:15.453Z,0.20
2023-01-25T22:19:43.729Z,0.20
2023-01-25T22:22:11.618Z,0.20
2023-01-25T22:24:39.642Z,0.19
2023-01-25T22:27:26.324Z,0.19
2023-01-25T22:29:54.476Z,0.20
2023-01-25T22:32:22.463Z,0.18
2023-01-25T22:34:50.500Z,0.19
2023-01-25T22:37:18.491Z,0.18
2023-01-25T22:39:47.076Z,0.19
2023-01-25T22:42:15.119Z,0.19
2023-01-25T22:44:43.177Z,0.18
2023-01-25T22:47:11.212Z,0.18
2023-01-25T22:49:39.110Z,0.19
2023-01-25T22:52:07.067Z,0.20
2023-01-25T22:54:35.560Z,0.20
2023-01-25T22:57:03.502Z,0.20
2023-01-25T22:59:31.506Z,0.19
2023-01-25T23:01:59.414Z,0.20
2023-01-25T23:04:27.549Z,0.19
2023-01-25T23:07:02.873Z,0.20
2023-01-25T23:09:31.064Z,0.20
2023-01-25T23:11:59.327Z,0.21
2023-01-25T23:14:45.826Z,0.21
2023-01-25T23:17:32.534Z,0.23
2023-01-25T23:20:00.595Z,0.23
2023-01-25T23:22:28.669Z,0.24
2023-01-25T23:24:56.738Z,0.24
2023-01-25T23:27:24.837Z,0.25
2023-01-25T23:29:53.236Z,0.26
2023-01-25T23:32:21.693Z,0.28
2023-01-25T23:34:53.383Z,0.28
2023-01-25T23:37:22.138Z,0.29
2023-01-25T23:39:50.586Z,0.28
2023-01-25T23:42:19.129Z,0.28
2023-01-25T23:44:47.247Z,0.27
2023-01-25T23:47:15.549Z,0.27
2023-01-25T23:49:43.632Z,0.27
2023-01-25T23:52:11.574Z,0.27
2023-01-25T23:54:39.763Z,0.27
2023-01-25T23:57:07.823Z,0.26
2023-01-25T23:59:35.690Z,0.25
